createdAt,value
2023-01-19T00:01:36.072Z,15.55
2023-01-19T00:04:06.381Z,88.10
2023-01-19T00:06:35.517Z,52.38
2023-01-19T00:09:04.685Z,30.85
2023-01-19T00:11:33.650Z,18.05
2023-01-19T00:14:02.759Z,23.70
2023-01-19T00:16:32.117Z,21.02
2023-01-19T00:19:01.162Z,22.38
2023-01-19T00:21:30.190Z,22.95
2023-01-19T00:23:59.250Z,22.45
2023-01-19T00:26:28.446Z,21.70
2023-01-19T00:28:57.816Z,20.95
2023-01-19T00:31:26.871Z,23.42
2023-01-19T00:33:55.916Z,24.25
2023-01-19T00:36:24.928Z,21.17
2023-01-19T00:38:53.904Z,22.70
2023-01-19T00:41:45.407Z,26.00
2023-01-19T00:44:14.687Z,31.48
2023-01-19T00:46:43.773Z,32.38
2023-01-19T00:49:13.072Z,20.98
2023-01-19T00:51:42.056Z,24.67
2023-01-19T00:54:11.440Z,21.13
2023-01-19T00:56:40.441Z,23.50
2023-01-19T00:59:09.468Z,19.17
2023-01-19T01:01:46.005Z,18.48
2023-01-19T01:04:16.052Z,18.10
2023-01-19T01:06:45.053Z,19.65
2023-01-19T01:09:14.085Z,29.80
2023-01-19T01:11:44.295Z,16.33
2023-01-19T01:14:16.415Z,16.08
2023-01-19T01:16:45.506Z,21.30
2023-01-19T01:19:14.606Z,14.07
2023-01-19T01:21:43.666Z,16.20
2023-01-19T01:24:13.152Z,19.40
2023-01-19T01:26:42.401Z,15.30
2023-01-19T01:29:11.462Z,26.15
2023-01-19T01:31:40.579Z,15.18
2023-01-19T01:34:09.941Z,18.08
2023-01-19T01:36:39.080Z,26.27
2023-01-19T01:39:08.120Z,21.63
2023-01-19T01:41:37.155Z,20.85
2023-01-19T01:44:26.214Z,20.98
2023-01-19T01:46:55.735Z,21.08
2023-01-19T01:49:24.913Z,26.70
2023-01-19T01:51:55.698Z,15.15
2023-01-19T01:54:34.982Z,18.92
2023-01-19T01:57:07.292Z,20.30
2023-01-19T01:59:43.979Z,19.35
2023-01-19T02:02:38.831Z,18.40
2023-01-19T02:05:18.134Z,14.07
2023-01-19T02:08:32.624Z,17.40
2023-01-19T02:11:21.734Z,8.05
2023-01-19T02:13:51.279Z,9.60
2023-01-19T02:16:20.673Z,11.43
2023-01-19T02:18:49.983Z,9.30
2023-01-19T02:21:48.381Z,11.35
2023-01-19T02:24:18.649Z,7.60
2023-01-19T02:26:49.341Z,7.90
2023-01-19T02:29:24.207Z,7.97
2023-01-19T02:31:55.236Z,6.97
2023-01-19T02:34:24.968Z,8.00
2023-01-19T02:37:03.394Z,7.72
2023-01-19T02:40:01.285Z,9.00
2023-01-19T02:42:47.633Z,13.18
2023-01-19T02:45:23.284Z,8.38
2023-01-19T02:47:54.154Z,12.07
2023-01-19T02:50:50.887Z,6.70
2023-01-19T02:53:38.275Z,18.52
2023-01-19T02:56:35.983Z,9.98
2023-01-19T02:59:35.402Z,10.50
2023-01-19T03:02:13.820Z,9.77
2023-01-19T03:05:06.694Z,9.13
2023-01-19T03:07:53.333Z,8.80
2023-01-19T03:10:44.090Z,6.93
2023-01-19T03:13:17.902Z,9.02
2023-01-19T03:16:02.770Z,9.57
2023-01-19T03:18:34.839Z,8.43
2023-01-19T03:21:07.588Z,12.18
2023-01-19T03:23:38.919Z,14.15
2023-01-19T03:26:12.273Z,9.20
2023-01-19T03:28:45.435Z,13.77
2023-01-19T03:31:25.271Z,15.50
2023-01-19T03:34:02.739Z,8.55
2023-01-19T03:37:04.389Z,9.02
2023-01-19T03:39:33.754Z,11.45
2023-01-19T03:42:13.029Z,11.40
2023-01-19T03:44:43.754Z,8.57
2023-01-19T03:47:15.053Z,10.20
2023-01-19T03:49:46.651Z,9.68
2023-01-19T03:52:15.742Z,10.80
2023-01-19T03:54:44.977Z,10.75
2023-01-19T03:57:14.014Z,11.60
2023-01-19T03:59:43.001Z,11.70
2023-01-19T04:02:12.157Z,8.82
2023-01-19T04:04:41.217Z,7.40
2023-01-19T04:07:12.649Z,11.90
2023-01-19T04:09:41.740Z,10.98
2023-01-19T04:12:11.132Z,11.30
2023-01-19T04:14:40.263Z,11.63
2023-01-19T04:17:10.366Z,8.10
2023-01-19T04:19:39.730Z,9.73
2023-01-19T04:22:09.081Z,7.80
2023-01-19T04:24:38.036Z,8.23
2023-01-19T04:27:07.021Z,8.18
2023-01-19T04:29:36.045Z,13.85
2023-01-19T04:32:08.807Z,7.75
2023-01-19T04:34:37.859Z,7.88
2023-01-19T04:37:06.825Z,8.57
2023-01-19T04:39:36.151Z,14.70
2023-01-19T04:42:05.238Z,13.32
2023-01-19T04:44:34.284Z,9.32
2023-01-19T04:47:04.528Z,10.57
2023-01-19T04:49:33.684Z,10.27
2023-01-19T04:52:03.060Z,10.55
2023-01-19T04:54:32.562Z,9.73
2023-01-19T04:57:01.700Z,7.18
2023-01-19T04:59:33.196Z,7.28
2023-01-19T05:02:02.381Z,7.40
2023-01-19T05:04:31.491Z,6.65
2023-01-19T05:07:01.588Z,6.60
2023-01-19T05:09:30.645Z,8.70
2023-01-19T05:11:59.736Z,7.05
2023-01-19T05:14:28.720Z,9.95
2023-01-19T05:16:57.727Z,9.07
2023-01-19T05:19:26.723Z,7.95
2023-01-19T05:21:55.721Z,7.22
2023-01-19T05:24:24.680Z,10.43
2023-01-19T05:26:53.634Z,7.38
2023-01-19T05:29:22.685Z,10.95
2023-01-19T05:31:51.843Z,10.18
2023-01-19T05:34:21.332Z,7.60
2023-01-19T05:36:50.403Z,30.33
2023-01-19T05:39:19.338Z,18.40
2023-01-19T05:41:48.856Z,10.13
2023-01-19T05:44:17.823Z,7.55
2023-01-19T05:46:46.953Z,8.48
2023-01-19T05:49:16.229Z,11.25
2023-01-19T05:51:46.528Z,10.95
2023-01-19T05:54:16.799Z,11.23
2023-01-19T05:56:46.002Z,9.85
2023-01-19T05:59:19.383Z,5.75
2023-01-19T06:01:48.405Z,13.88
2023-01-19T06:04:17.495Z,7.93
2023-01-19T06:06:46.497Z,10.85
2023-01-19T06:09:18.528Z,7.93
2023-01-19T06:11:48.610Z,5.47
2023-01-19T06:14:20.038Z,5.18
2023-01-19T06:16:49.202Z,6.07
2023-01-19T06:19:18.202Z,6.78
2023-01-19T06:21:50.812Z,9.88
2023-01-19T06:24:20.361Z,9.23
2023-01-19T06:26:49.424Z,8.98
2023-01-19T06:29:18.618Z,5.75
2023-01-19T06:31:47.746Z,5.65
2023-01-19T06:34:16.913Z,8.00
2023-01-19T06:36:46.336Z,6.75
2023-01-19T06:39:15.276Z,6.72
2023-01-19T06:41:44.380Z,10.52
2023-01-19T06:44:13.385Z,10.27
2023-01-19T06:46:42.469Z,6.93
2023-01-19T06:49:11.474Z,7.95
2023-01-19T06:51:40.611Z,10.63
2023-01-19T06:54:09.574Z,12.27
2023-01-19T06:56:38.557Z,7.40
2023-01-19T06:59:07.912Z,5.53
2023-01-19T07:01:37.146Z,5.95
2023-01-19T07:04:06.348Z,6.25
2023-01-19T07:06:35.329Z,12.57
2023-01-19T07:09:08.994Z,8.85
2023-01-19T07:11:39.178Z,10.60
2023-01-19T07:14:08.205Z,5.90
2023-01-19T07:16:37.210Z,4.22
2023-01-19T07:19:07.006Z,6.28
2023-01-19T07:21:36.301Z,4.45
2023-01-19T07:24:05.502Z,5.93
2023-01-19T07:26:34.470Z,5.88
2023-01-19T07:29:03.430Z,8.35
2023-01-19T07:31:32.510Z,6.32
2023-01-19T07:34:04.408Z,5.53
2023-01-19T07:36:33.491Z,4.85
2023-01-19T07:39:02.590Z,10.35
2023-01-19T07:41:31.649Z,6.28
2023-01-19T07:44:00.617Z,5.43
2023-01-19T07:46:29.648Z,6.55
2023-01-19T07:48:58.654Z,6.05
2023-01-19T07:51:30.839Z,6.97
2023-01-19T07:53:59.831Z,5.63
2023-01-19T07:56:32.762Z,7.45
2023-01-19T08:01:32.550Z,9.70
2023-01-19T08:04:01.896Z,6.75
2023-01-19T08:06:39.163Z,4.47
2023-01-19T08:09:08.393Z,4.72
2023-01-19T08:11:38.112Z,6.53
2023-01-19T08:14:08.039Z,4.53
2023-01-19T08:16:38.393Z,6.78
2023-01-19T08:19:07.502Z,11.52
2023-01-19T08:21:37.514Z,4.30
2023-01-19T08:24:06.800Z,7.60
2023-01-19T08:26:37.149Z,6.13
2023-01-19T08:29:07.902Z,6.03
2023-01-19T08:31:37.276Z,7.40
2023-01-19T08:34:06.698Z,7.95
2023-01-19T08:36:36.865Z,6.00
2023-01-19T08:39:06.316Z,9.70
2023-01-19T08:41:35.614Z,6.28
2023-01-19T08:44:04.646Z,8.95
2023-01-19T08:46:33.724Z,10.65
2023-01-19T08:49:02.842Z,5.07
2023-01-19T08:51:31.850Z,10.00
2023-01-19T08:54:00.884Z,5.93
2023-01-19T08:56:29.864Z,4.60
2023-01-19T08:59:09.275Z,5.63
2023-01-19T09:01:42.525Z,11.90
2023-01-19T09:04:11.619Z,11.02
2023-01-19T09:06:40.667Z,6.40
2023-01-19T09:09:09.680Z,6.53
2023-01-19T09:11:38.767Z,6.93
2023-01-19T09:14:07.997Z,8.80
2023-01-19T09:16:39.856Z,6.15
2023-01-19T09:19:10.014Z,8.73
2023-01-19T09:21:39.591Z,9.57
2023-01-19T09:24:09.133Z,6.57
2023-01-19T09:26:40.285Z,4.32
2023-01-19T09:29:09.260Z,7.25
2023-01-19T09:31:38.718Z,5.28
2023-01-19T09:34:07.892Z,6.25
2023-01-19T09:36:38.408Z,5.82
2023-01-19T09:39:07.754Z,9.15
2023-01-19T09:41:39.776Z,5.55
2023-01-19T09:44:16.459Z,5.85
2023-01-19T09:46:45.670Z,15.52
2023-01-19T09:49:32.845Z,5.60
2023-01-19T09:52:02.026Z,5.60
2023-01-19T09:54:54.121Z,6.72
2023-01-19T09:57:28.358Z,6.72
2023-01-19T10:00:00.708Z,5.60
2023-01-19T10:02:39.206Z,5.60
2023-01-19T10:05:23.377Z,7.63
2023-01-19T10:10:42.220Z,10.18
2023-01-19T10:13:18.081Z,9.23
2023-01-19T10:15:56.198Z,7.15
2023-01-19T10:18:32.090Z,6.97
2023-01-19T10:21:05.463Z,7.88
2023-01-19T10:26:19.085Z,8.90
2023-01-19T10:28:50.765Z,5.45
2023-01-19T10:31:24.058Z,9.02
2023-01-19T10:33:53.778Z,11.23
2023-01-19T10:36:26.868Z,7.40
2023-01-19T10:38:55.876Z,6.43
2023-01-19T10:41:47.894Z,7.18
2023-01-19T10:44:26.365Z,6.57
2023-01-19T10:46:59.258Z,8.25
2023-01-19T10:49:28.368Z,8.45
2023-01-19T10:52:00.035Z,8.40
2023-01-19T10:54:31.325Z,10.95
2023-01-19T10:57:06.405Z,5.53
2023-01-19T10:59:39.637Z,6.50
2023-01-19T11:02:29.879Z,6.53
2023-01-19T11:05:01.609Z,9.20
2023-01-19T11:07:36.986Z,10.90
2023-01-19T11:10:22.307Z,8.13
2023-01-19T11:13:04.002Z,5.90
2023-01-19T11:15:50.965Z,8.93
2023-01-19T11:18:28.978Z,9.65
2023-01-19T11:21:03.931Z,9.18
2023-01-19T11:23:45.087Z,7.88
2023-01-19T11:26:36.426Z,9.50
2023-01-19T11:29:06.394Z,12.48
2023-01-19T11:31:37.271Z,16.23
2023-01-19T11:34:23.400Z,11.02
2023-01-19T11:37:21.705Z,19.58
2023-01-19T11:39:53.791Z,16.42
2023-01-19T11:42:23.906Z,17.08
2023-01-19T11:45:15.764Z,21.08
2023-01-19T11:47:48.084Z,13.98
2023-01-19T11:50:31.107Z,11.02
2023-01-19T11:53:25.640Z,16.15
2023-01-19T11:58:29.298Z,17.70
2023-01-19T12:01:01.061Z,14.70
2023-01-19T12:03:51.439Z,23.30
2023-01-19T12:06:27.093Z,24.08
2023-01-19T12:09:14.040Z,20.40
2023-01-19T12:11:50.317Z,15.43
2023-01-19T12:14:35.474Z,16.60
2023-01-19T12:17:07.263Z,17.80
2023-01-19T12:20:01.409Z,12.85
2023-01-19T12:22:35.894Z,18.05
2023-01-19T12:25:54.937Z,21.45
2023-01-19T12:28:31.713Z,24.35
2023-01-19T12:31:04.442Z,20.20
2023-01-19T12:33:40.965Z,22.88
2023-01-19T12:36:19.081Z,21.17
2023-01-19T12:38:50.094Z,22.65
2023-01-19T12:41:20.441Z,21.00
2023-01-19T12:44:10.180Z,29.10
2023-01-19T12:46:51.557Z,25.52
2023-01-19T12:49:40.028Z,32.67
2023-01-19T12:52:31.779Z,26.92
2023-01-19T12:55:16.107Z,23.67
2023-01-19T13:00:47.301Z,30.52
2023-01-19T13:03:22.194Z,25.38
2023-01-19T13:05:54.334Z,30.50
2023-01-19T13:08:50.330Z,25.15
2023-01-19T13:11:23.715Z,36.65
2023-01-19T13:14:02.711Z,32.30
2023-01-19T13:16:31.625Z,23.10
2023-01-19T13:19:33.887Z,28.00
2023-01-19T13:22:41.010Z,30.10
2023-01-19T13:25:15.557Z,28.77
2023-01-19T13:27:44.667Z,26.85
2023-01-19T13:30:19.162Z,23.67
2023-01-19T13:32:49.319Z,30.52
2023-01-19T13:35:21.624Z,34.90
2023-01-19T13:37:51.745Z,38.55
2023-01-19T13:40:39.443Z,35.80
2023-01-19T13:43:21.000Z,33.38
2023-01-19T13:45:53.540Z,43.90
2023-01-19T13:48:25.253Z,47.42
2023-01-19T13:51:18.714Z,43.28
2023-01-19T13:54:02.737Z,62.67
2023-01-19T13:56:32.085Z,46.85
2023-01-19T13:59:12.852Z,50.75
2023-01-19T14:01:45.079Z,45.60
2023-01-19T14:04:46.512Z,49.13
2023-01-19T14:07:27.294Z,46.20
2023-01-19T14:10:13.418Z,47.70
2023-01-19T14:12:58.112Z,44.13
2023-01-19T14:15:28.649Z,41.63
2023-01-19T14:18:16.048Z,45.90
2023-01-19T14:21:19.323Z,43.03
2023-01-19T14:24:19.155Z,41.05
2023-01-19T14:27:15.553Z,43.63
2023-01-19T14:29:46.724Z,47.70
2023-01-19T14:32:24.129Z,50.65
2023-01-19T14:35:05.320Z,41.53
2023-01-19T14:37:39.399Z,39.67
2023-01-19T14:40:14.834Z,49.00
2023-01-19T14:43:07.266Z,36.33
2023-01-19T14:45:40.377Z,35.70
2023-01-19T14:48:18.184Z,29.35
2023-01-19T14:51:01.914Z,36.20
2023-01-19T14:53:37.968Z,26.45
2023-01-19T14:56:08.551Z,30.05
2023-01-19T14:58:37.930Z,31.15
2023-01-19T15:01:07.534Z,36.80
2023-01-19T15:03:45.607Z,29.95
2023-01-19T15:06:20.876Z,34.80
2023-01-19T15:08:51.300Z,24.83
2023-01-19T15:11:26.233Z,27.60
2023-01-19T15:13:56.618Z,26.98
2023-01-19T15:16:29.322Z,30.52
2023-01-19T15:18:58.345Z,26.88
2023-01-19T15:21:27.695Z,26.58
2023-01-19T15:23:59.268Z,21.90
2023-01-19T15:26:28.840Z,23.75
2023-01-19T15:28:58.117Z,21.10
2023-01-19T15:31:27.894Z,20.02
2023-01-19T15:33:57.269Z,22.27
2023-01-19T15:36:26.316Z,21.73
2023-01-19T15:38:55.324Z,21.55
2023-01-19T15:41:32.845Z,22.75
2023-01-19T15:44:02.034Z,20.08
2023-01-19T15:46:31.029Z,21.15
2023-01-19T15:49:00.128Z,22.40
2023-01-19T15:51:29.340Z,23.88
2023-01-19T15:53:58.423Z,19.67
2023-01-19T15:56:32.589Z,18.88
2023-01-19T16:01:35.667Z,21.27
2023-01-19T16:04:08.205Z,21.80
2023-01-19T16:06:37.561Z,24.02
2023-01-19T16:09:06.683Z,23.63
2023-01-19T16:11:36.803Z,22.77
2023-01-19T16:14:05.956Z,23.27
2023-01-19T16:16:35.093Z,19.75
2023-01-19T16:19:04.374Z,19.15
2023-01-19T16:21:40.790Z,26.08
2023-01-19T16:24:09.880Z,23.60
2023-01-19T16:26:38.859Z,22.75
2023-01-19T16:29:11.690Z,21.70
2023-01-19T16:31:42.449Z,22.92
2023-01-19T16:34:12.381Z,32.35
2023-01-19T16:36:42.901Z,21.88
2023-01-19T16:39:16.798Z,22.42
2023-01-19T16:46:52.693Z,20.48
2023-01-19T16:49:28.473Z,22.38
2023-01-19T16:51:59.537Z,21.85
2023-01-19T16:54:30.359Z,17.23
2023-01-19T16:56:59.969Z,17.73
2023-01-19T16:59:30.403Z,21.13
2023-01-19T17:01:59.715Z,19.42
2023-01-19T17:04:29.140Z,21.60
2023-01-19T17:06:58.296Z,14.80
2023-01-19T17:09:27.290Z,12.85
2023-01-19T17:11:56.504Z,15.60
2023-01-19T17:14:25.561Z,12.90
2023-01-19T17:17:38.014Z,18.33
2023-01-19T17:20:07.619Z,16.60
2023-01-19T17:22:36.530Z,12.23
2023-01-19T17:25:05.816Z,11.32
2023-01-19T17:27:37.010Z,10.07
2023-01-19T17:30:06.373Z,10.38
2023-01-19T17:32:35.247Z,14.05
2023-01-19T17:35:04.252Z,11.15
2023-01-19T17:37:33.159Z,12.50
2023-01-19T17:40:02.179Z,13.30
2023-01-19T17:42:31.180Z,11.82
2023-01-19T17:45:00.318Z,11.18
2023-01-19T17:47:29.217Z,12.40
2023-01-19T17:49:58.157Z,9.25
2023-01-19T17:52:27.022Z,8.80
2023-01-19T17:54:55.895Z,9.15
2023-01-19T17:57:24.837Z,10.30
2023-01-19T17:59:53.698Z,12.75
2023-01-19T18:02:25.686Z,14.57
2023-01-19T18:04:54.632Z,10.70
2023-01-19T18:07:24.599Z,13.23
2023-01-19T18:09:56.293Z,7.78
2023-01-19T18:12:26.154Z,8.35
2023-01-19T18:14:55.040Z,11.02
2023-01-19T18:17:23.960Z,8.25
2023-01-19T18:19:53.069Z,8.25
2023-01-19T18:22:21.972Z,9.48
2023-01-19T18:24:50.883Z,7.93
2023-01-19T18:27:22.513Z,7.55
2023-01-19T18:29:51.899Z,8.73
2023-01-19T18:32:22.164Z,7.78
2023-01-19T18:34:53.438Z,7.38
2023-01-19T18:37:22.382Z,7.25
2023-01-19T18:39:51.626Z,9.90
2023-01-19T18:42:20.523Z,6.82
2023-01-19T18:44:49.676Z,7.50
2023-01-19T18:47:18.667Z,9.27
2023-01-19T18:49:47.580Z,7.93
2023-01-19T18:52:16.471Z,7.22
2023-01-19T18:54:45.341Z,5.97
2023-01-19T18:57:14.268Z,9.07
2023-01-19T18:59:44.994Z,6.20
2023-01-19T19:02:14.558Z,6.43
2023-01-19T19:04:43.826Z,6.90
2023-01-19T19:07:12.743Z,5.63
2023-01-19T19:09:41.665Z,10.70
2023-01-19T19:12:10.818Z,8.00
2023-01-19T19:14:39.721Z,6.43
2023-01-19T19:17:08.618Z,7.25
2023-01-19T19:19:37.589Z,7.70
2023-01-19T19:22:06.530Z,10.35
2023-01-19T19:24:36.493Z,5.38
2023-01-19T19:27:05.419Z,6.32
2023-01-19T19:29:36.207Z,5.57
2023-01-19T19:32:05.195Z,6.03
2023-01-19T19:34:34.856Z,11.32
2023-01-19T19:37:03.823Z,8.40
2023-01-19T19:39:32.908Z,12.07
2023-01-19T19:42:01.870Z,6.53
2023-01-19T19:44:30.903Z,7.15
2023-01-19T19:46:59.869Z,6.95
2023-01-19T19:49:28.842Z,5.65
2023-01-19T19:51:57.715Z,6.22
2023-01-19T19:54:26.682Z,5.65
2023-01-19T19:56:55.762Z,4.80
2023-01-19T19:59:24.689Z,6.60
2023-01-19T20:01:55.517Z,6.68
2023-01-19T20:04:26.382Z,17.45
2023-01-19T20:06:55.332Z,6.88
2023-01-19T20:09:24.844Z,7.22
2023-01-19T20:11:54.013Z,7.25
2023-01-19T20:14:24.959Z,5.80
2023-01-19T20:16:55.419Z,6.75
2023-01-19T20:19:24.308Z,7.13
2023-01-19T20:21:53.358Z,9.43
2023-01-19T20:24:22.999Z,8.00
2023-01-19T20:26:53.981Z,6.63
2023-01-19T20:29:23.177Z,8.70
2023-01-19T20:31:55.353Z,8.45
2023-01-19T20:34:28.138Z,7.10
2023-01-19T20:36:57.480Z,8.10
2023-01-19T20:39:26.956Z,8.23
2023-01-19T20:41:55.981Z,8.93
2023-01-19T20:44:26.933Z,8.63
2023-01-19T20:46:56.798Z,11.75
2023-01-19T20:49:25.996Z,8.07
2023-01-19T20:51:55.248Z,8.32
2023-01-19T20:54:27.962Z,9.20
2023-01-19T20:56:57.387Z,8.90
2023-01-19T20:59:26.420Z,8.20
2023-01-19T21:01:56.101Z,9.43
2023-01-19T21:04:25.170Z,13.20
2023-01-19T21:06:54.132Z,13.05
2023-01-19T21:09:23.961Z,13.57
2023-01-19T21:11:52.833Z,12.90
2023-01-19T21:14:21.826Z,12.88
2023-01-19T21:16:51.666Z,15.88
2023-01-19T21:19:20.534Z,15.98
2023-01-19T21:21:49.465Z,15.90
2023-01-19T21:24:18.408Z,18.48
2023-01-19T21:26:47.287Z,22.60
2023-01-19T21:29:16.228Z,16.65
2023-01-19T21:31:45.162Z,16.17
2023-01-19T21:34:15.203Z,16.92
2023-01-19T21:36:45.818Z,19.35
2023-01-19T21:39:17.163Z,21.42
2023-01-19T21:41:46.437Z,17.95
2023-01-19T21:44:15.764Z,20.80
2023-01-19T21:46:47.935Z,20.20
2023-01-19T21:49:21.462Z,20.42
2023-01-19T21:51:51.751Z,16.40
2023-01-19T21:54:21.321Z,18.55
2023-01-19T21:56:50.184Z,20.73
2023-01-19T21:59:20.381Z,18.60
2023-01-19T22:01:49.914Z,25.10
2023-01-19T22:04:20.766Z,24.25
2023-01-19T22:06:49.699Z,24.50
2023-01-19T22:09:18.660Z,24.77
2023-01-19T22:11:47.576Z,23.73
2023-01-19T22:14:16.451Z,21.40
2023-01-19T22:16:45.381Z,18.98
2023-01-19T22:19:15.478Z,15.43
2023-01-19T22:21:44.414Z,13.75
2023-01-19T22:24:15.660Z,15.63
2023-01-19T22:26:44.566Z,19.25
2023-01-19T22:29:14.426Z,20.45
2023-01-19T22:31:44.167Z,15.02
2023-01-19T22:34:14.847Z,15.27
2023-01-19T22:36:44.065Z,17.10
2023-01-19T22:39:14.850Z,18.52
2023-01-19T22:41:46.474Z,23.52
2023-01-19T22:44:18.129Z,25.45
2023-01-19T22:46:47.088Z,20.52
2023-01-19T22:49:17.939Z,20.35
2023-01-19T22:51:47.595Z,18.40
2023-01-19T22:54:16.796Z,18.70
2023-01-19T22:56:46.876Z,17.48
2023-01-19T22:59:15.889Z,19.50
2023-01-19T23:01:46.022Z,23.73
2023-01-19T23:04:17.100Z,22.45
2023-01-19T23:06:50.464Z,29.55
2023-01-19T23:09:19.881Z,26.33
2023-01-19T23:11:51.645Z,23.02
2023-01-19T23:14:22.881Z,21.50
2023-01-19T23:16:51.865Z,16.70
2023-01-19T23:19:21.233Z,23.98
2023-01-19T23:21:54.053Z,18.10
2023-01-19T23:24:23.129Z,16.33
2023-01-19T23:26:52.800Z,24.08
2023-01-19T23:29:21.790Z,27.95
2023-01-19T23:31:51.238Z,28.60
2023-01-19T23:34:20.176Z,19.48
2023-01-19T23:36:49.131Z,18.55
2023-01-19T23:39:23.264Z,20.70
2023-01-19T23:41:52.476Z,17.00
2023-01-19T23:44:21.569Z,18.35
2023-01-19T23:46:50.569Z,18.23
2023-01-19T23:49:19.583Z,14.25
2023-01-19T23:51:48.579Z,17.45
2023-01-19T23:54:20.317Z,18.35
2023-01-19T23:56:49.375Z,16.15
2023-01-19T23:59:18.483Z,13.32
